Time;durP1;ratioP1;P1;durP2;ratioP2;P2;SDS_P1;SDS_P2;PMS_P1;PMS_P2;Temp;Humidity;BMP_temperature;BMP_pressure;BME280_temperature;BME280_humidity;BME280_pressure;Samples;Min_cycle;Max_cycle;Signal;HPM_P1;HPM_P2
2021/06/24 00:02:24;;;;;;;2.78;2.10;;;21.30;99.90;;;;;;6147678;23;20275;-75
2021/06/24 00:04:53;;;;;;;3.10;1.85;;;21.30;99.90;;;;;;6147760;23;20279;-74
2021/06/24 00:07:20;;;;;;;3.92;2.05;;;21.30;99.90;;;;;;6149636;23;20172;-73
2021/06/24 00:09:47;;;;;;;2.22;1.80;;;21.20;99.90;;;;;;6146446;23;20172;-74
2021/06/24 00:12:14;;;;;;;2.33;1.60;;;21.20;99.90;;;;;;6164261;23;20227;-73
2021/06/24 00:14:41;;;;;;;2.08;1.50;;;21.20;99.90;;;;;;6144910;23;20211;-74
2021/06/24 00:17:09;;;;;;;2.25;1.85;;;21.20;99.90;;;;;;6147908;23;20214;-74
2021/06/24 00:19:36;;;;;;;2.47;1.75;;;21.20;99.90;;;;;;6149766;23;20198;-74
2021/06/24 00:22:05;;;;;;;2.28;1.80;;;21.20;99.90;;;;;;6150296;23;20276;-74
2021/06/24 00:24:32;;;;;;;3.63;1.95;;;21.20;99.90;;;;;;6166446;23;20190;-75
2021/06/24 00:26:59;;;;;;;1.77;1.65;;;21.10;99.90;;;;;;6161559;23;20251;-74
2021/06/24 00:29:26;;;;;;;4.40;2.28;;;21.10;99.90;;;;;;6149127;23;20168;-74
2021/06/24 00:31:53;;;;;;;3.45;2.25;;;21.10;99.90;;;;;;6147952;23;20287;-73
2021/06/24 00:34:21;;;;;;;2.55;1.95;;;21.10;99.90;;;;;;6148977;23;20544;-73
2021/06/24 00:36:48;;;;;;;1.95;1.80;;;21.10;99.90;;;;;;6147207;23;20279;-74
2021/06/24 00:39:16;;;;;;;2.45;2.08;;;21.10;99.90;;;;;;6147251;23;20279;-74
2021/06/24 00:41:45;;;;;;;2.83;1.90;;;21.10;99.90;;;;;;6148520;23;20287;-73
2021/06/24 00:44:12;;;;;;;3.80;1.88;;;21.00;99.90;;;;;;6149147;23;20172;-73
2021/06/24 00:46:40;;;;;;;3.03;2.20;;;21.00;99.90;;;;;;6149552;23;20291;-74
2021/06/24 00:49:08;;;;;;;2.58;2.08;;;21.00;99.90;;;;;;6149564;23;20194;-73
2021/06/24 00:51:36;;;;;;;2.83;2.10;;;21.00;99.90;;;;;;6151130;23;20291;-73
2021/06/24 00:54:03;;;;;;;3.15;1.98;;;20.90;99.90;;;;;;6148750;23;20172;-74
2021/06/24 00:56:33;;;;;;;3.58;1.88;;;20.90;99.90;;;;;;6149329;23;20275;-75
2021/06/24 00:59:01;;;;;;;1.90;1.63;;;20.80;99.90;;;;;;6149675;23;20190;-74
2021/06/24 01:01:29;;;;;;;2.22;1.67;;;20.80;99.90;;;;;;6160091;23;20212;-74
2021/06/24 01:03:56;;;;;;;2.53;1.90;;;20.80;99.90;;;;;;6146016;23;20841;-73
2021/06/24 01:06:23;;;;;;;5.35;1.85;;;20.80;99.90;;;;;;6144127;23;20206;-73
2021/06/24 01:08:51;;;;;;;2.75;1.70;;;20.80;99.90;;;;;;6147087;23;20267;-74
2021/06/24 01:11:18;;;;;;;3.88;1.90;;;20.90;99.90;;;;;;6164673;23;20218;-75
2021/06/24 01:13:48;;;;;;;3.10;2.08;;;20.90;99.90;;;;;;6152905;23;20263;-74
2021/06/24 01:16:16;;;;;;;3.78;1.95;;;20.90;99.90;;;;;;6145636;23;20896;-74
2021/06/24 01:18:43;;;;;;;3.75;2.13;;;20.80;99.90;;;;;;6146660;23;20698;-74
2021/06/24 01:21:10;;;;;;;2.70;2.25;;;20.80;99.90;;;;;;6146734;23;20743;-73
2021/06/24 01:23:42;;;;;;;3.70;1.85;;;20.80;99.90;;;;;;6148164;23;20182;-74
2021/06/24 01:26:10;;;;;;;2.45;1.80;;;20.70;99.90;;;;;;6149378;23;20279;-72
2021/06/24 01:28:38;;;;;;;2.13;1.80;;;20.70;99.90;;;;;;6148868;23;20219;-74
2021/06/24 01:31:05;;;;;;;4.03;2.35;;;20.70;99.90;;;;;;6148580;23;20275;-74
2021/06/24 01:33:33;;;;;;;2.03;1.73;;;20.70;99.90;;;;;;6150393;23;20261;-74
2021/06/24 01:36:02;;;;;;;3.28;1.92;;;20.70;99.90;;;;;;6147635;23;20207;-74
2021/06/24 01:38:29;;;;;;;2.38;1.67;;;20.70;99.90;;;;;;6149506;23;20644;-74
2021/06/24 01:40:58;;;;;;;4.15;2.10;;;20.60;99.90;;;;;;6149352;23;20688;-74
2021/06/24 01:43:26;;;;;;;2.80;2.00;;;20.70;99.90;;;;;;6149658;23;20259;-74
2021/06/24 01:45:55;;;;;;;2.03;1.75;;;20.60;99.90;;;;;;6149505;23;20294;-74
2021/06/24 01:48:23;;;;;;;3.10;1.75;;;20.60;99.90;;;;;;6151284;23;20255;-73
2021/06/24 01:50:51;;;;;;;4.55;2.00;;;20.60;99.90;;;;;;6167750;23;20200;-75
2021/06/24 01:53:18;;;;;;;2.70;1.80;;;20.50;99.90;;;;;;6150469;23;20283;-74
2021/06/24 01:55:46;;;;;;;3.40;2.17;;;20.50;99.90;;;;;;6150013;23;20200;-73
2021/06/24 01:58:21;;;;;;;2.55;2.35;;;20.30;99.90;;;;;;6173952;23;20152;-74
2021/06/24 02:00:49;;;;;;;2.92;1.98;;;20.30;99.90;;;;;;6150546;23;20227;-74
2021/06/24 02:03:16;;;;;;;3.15;2.20;;;20.30;99.90;;;;;;6149395;23;20266;-74
2021/06/24 02:05:45;;;;;;;4.25;2.05;;;20.30;99.90;;;;;;6150243;23;20255;-74
2021/06/24 02:08:13;;;;;;;2.72;2.10;;;20.40;99.90;;;;;;6151507;23;20255;-73
2021/06/24 02:10:40;;;;;;;3.13;2.00;;;20.50;99.90;;;;;;6150582;23;20204;-73
2021/06/24 02:13:08;;;;;;;2.22;1.90;;;20.50;99.90;;;;;;6151172;23;20283;-74
2021/06/24 02:15:36;;;;;;;4.57;2.10;;;20.50;99.90;;;;;;6149660;23;20279;-77
2021/06/24 02:18:04;;;;;;;4.20;2.05;;;20.50;99.90;;;;;;6148459;23;20275;-76
2021/06/24 02:20:31;;;;;;;2.35;1.80;;;20.20;99.90;;;;;;6146147;23;20295;-75
2021/06/24 02:22:58;;;;;;;2.95;1.90;;;19.90;99.90;;;;;;6148509;23;20385;-76
2021/06/24 02:25:26;;;;;;;4.47;2.05;;;19.70;99.90;;;;;;6149004;23;20266;-75
2021/06/24 02:27:54;;;;;;;2.75;2.00;;;19.50;99.90;;;;;;6150457;23;20208;-77
2021/06/24 02:30:22;;;;;;;2.20;1.88;;;19.40;99.90;;;;;;6149082;23;20208;-77
2021/06/24 02:32:52;;;;;;;2.10;1.92;;;19.30;99.90;;;;;;6150540;23;20192;-77
2021/06/24 02:35:21;;;;;;;3.40;1.98;;;19.20;99.90;;;;;;6149152;23;20207;-77
2021/06/24 02:37:48;;;;;;;2.08;1.70;;;19.10;99.90;;;;;;6150315;23;20207;-77
2021/06/24 02:40:17;;;;;;;2.80;1.85;;;18.90;99.90;;;;;;6162366;23;20207;-78
2021/06/24 02:42:46;;;;;;;3.08;1.95;;;18.90;99.90;;;;;;6156591;23;20524;-77
2021/06/24 02:45:14;;;;;;;1.92;1.73;;;18.80;99.90;;;;;;6166055;23;20186;-77
2021/06/24 02:47:42;;;;;;;3.38;1.67;;;18.80;99.90;;;;;;6150320;23;20175;-77
2021/06/24 02:50:12;;;;;;;2.13;1.73;;;18.70;99.90;;;;;;6149954;23;20180;-75
2021/06/24 02:52:39;;;;;;;2.13;1.90;;;18.80;99.90;;;;;;6149278;23;20193;-76
2021/06/24 02:55:08;;;;;;;3.00;2.15;;;18.80;99.90;;;;;;6150094;23;20180;-76
2021/06/24 02:57:35;;;;;;;2.42;1.70;;;18.80;99.90;;;;;;6150607;23;20236;-77
2021/06/24 03:00:03;;;;;;;3.67;2.28;;;18.80;99.90;;;;;;6150626;23;20188;-75
2021/06/24 03:02:30;;;;;;;2.50;1.70;;;18.60;99.90;;;;;;6150020;23;20211;-76
2021/06/24 03:04:57;;;;;;;1.95;1.73;;;18.60;99.90;;;;;;6151569;23;20640;-76
2021/06/24 03:07:26;;;;;;;3.80;1.90;;;18.50;99.90;;;;;;6148494;23;20532;-76
2021/06/24 03:09:53;;;;;;;3.47;2.00;;;18.50;99.90;;;;;;6149973;23;20205;-76
2021/06/24 03:12:20;;;;;;;2.55;2.35;;;18.40;99.90;;;;;;6148222;23;20204;-76
2021/06/24 03:14:47;;;;;;;1.80;1.67;;;18.40;99.90;;;;;;6150617;23;20177;-76
2021/06/24 03:17:14;;;;;;;4.78;2.15;;;18.40;99.90;;;;;;6148452;23;20215;-76
2021/06/24 03:19:41;;;;;;;2.20;2.00;;;18.40;99.90;;;;;;6149914;23;20211;-75
2021/06/24 03:22:08;;;;;;;1.80;1.70;;;18.40;99.90;;;;;;6149394;23;20204;-77
2021/06/24 03:24:37;;;;;;;1.60;1.50;;;18.40;99.90;;;;;;6150068;23;20164;-76
2021/06/24 03:27:05;;;;;;;2.40;1.88;;;18.40;99.90;;;;;;6149618;23;20684;-75
2021/06/24 03:29:32;;;;;;;2.17;1.70;;;18.30;99.90;;;;;;6153867;23;20173;-76
2021/06/24 03:31:59;;;;;;;2.78;2.08;;;18.30;99.90;;;;;;6158103;23;20212;-75
2021/06/24 03:34:26;;;;;;;2.45;2.00;;;18.30;99.90;;;;;;6151703;23;20176;-76
2021/06/24 03:36:53;;;;;;;2.50;2.15;;;18.30;99.90;;;;;;6150165;23;20215;-76
2021/06/24 03:39:20;;;;;;;1.98;1.60;;;18.20;99.90;;;;;;6150424;23;20172;-76
2021/06/24 03:41:49;;;;;;;3.15;2.20;;;18.20;99.90;;;;;;6149359;23;20203;-76
2021/06/24 03:44:16;;;;;;;3.88;2.22;;;18.20;99.90;;;;;;6150756;23;20172;-76
2021/06/24 03:46:43;;;;;;;1.70;1.60;;;18.20;99.90;;;;;;6150624;23;20200;-76
2021/06/24 03:49:11;;;;;;;2.10;2.00;;;18.20;99.90;;;;;;6149935;23;20176;-75
2021/06/24 03:51:38;;;;;;;2.30;2.03;;;18.20;99.90;;;;;;6148733;23;20204;-76
2021/06/24 03:54:05;;;;;;;2.85;1.90;;;18.20;99.90;;;;;;6150220;23;20640;-76
2021/06/24 03:56:33;;;;;;;1.95;1.80;;;18.20;99.90;;;;;;6148178;23;20204;-76
2021/06/24 03:59:01;;;;;;;3.28;1.85;;;18.20;99.90;;;;;;6150678;23;20187;-77
2021/06/24 04:01:29;;;;;;;3.83;1.90;;;18.20;99.90;;;;;;6149465;23;20269;-78
2021/06/24 04:03:56;;;;;;;4.35;2.33;;;18.20;99.90;;;;;;6150581;23;20535;-76
2021/06/24 04:06:23;;;;;;;2.05;1.52;;;18.20;99.90;;;;;;6147951;23;20207;-75
2021/06/24 04:08:50;;;;;;;2.05;1.70;;;18.20;99.90;;;;;;6150113;23;20176;-75
2021/06/24 04:11:17;;;;;;;1.83;1.70;;;18.30;99.90;;;;;;6148839;23;20203;-75
2021/06/24 04:13:44;;;;;;;2.67;1.85;;;18.40;99.90;;;;;;6151573;23;20172;-76
2021/06/24 04:16:13;;;;;;;1.50;1.40;;;18.50;99.90;;;;;;6160992;23;20188;-77
2021/06/24 04:18:40;;;;;;;4.50;1.92;;;18.60;99.90;;;;;;6162660;23;20187;-75
2021/06/24 04:21:07;;;;;;;1.95;1.77;;;18.70;99.90;;;;;;6165107;23;20214;-77
2021/06/24 04:23:34;;;;;;;2.70;1.73;;;18.70;99.90;;;;;;6150019;23;20176;-76
2021/06/24 04:26:01;;;;;;;2.20;2.00;;;18.80;99.90;;;;;;6150934;23;20704;-76
2021/06/24 04:28:28;;;;;;;2.63;1.52;;;18.80;99.90;;;;;;6150115;23;20506;-76
2021/06/24 04:30:56;;;;;;;2.85;1.73;;;18.80;99.90;;;;;;6149344;23;20204;-75
2021/06/24 04:33:24;;;;;;;2.70;1.42;;;18.90;99.90;;;;;;6147437;23;20180;-77
2021/06/24 04:35:51;;;;;;;1.92;1.83;;;19.00;99.90;;;;;;6148642;23;20200;-76
2021/06/24 04:38:18;;;;;;;2.88;1.80;;;19.20;99.90;;;;;;6149912;23;20187;-76
2021/06/24 04:40:45;;;;;;;3.60;1.80;;;19.20;99.90;;;;;;6147523;23;20200;-76
2021/06/24 04:43:13;;;;;;;2.10;1.90;;;19.20;99.90;;;;;;6148845;23;20211;-75
2021/06/24 04:45:40;;;;;;;2.25;2.05;;;19.30;99.90;;;;;;6149068;23;20196;-75
2021/06/24 04:48:08;;;;;;;2.72;2.20;;;19.20;99.90;;;;;;6149791;23;20176;-75
2021/06/24 04:50:36;;;;;;;1.90;1.80;;;19.10;99.90;;;;;;6149544;23;20211;-74
2021/06/24 04:53:04;;;;;;;3.35;1.90;;;19.10;99.90;;;;;;6147641;23;20199;-76
2021/06/24 04:55:38;;;;;;;4.07;2.38;;;19.10;99.90;;;;;;6149354;23;20175;-75
2021/06/24 04:58:05;;;;;;;3.00;2.30;;;19.20;99.90;;;;;;6149539;23;20167;-76
2021/06/24 05:00:33;;;;;;;3.53;2.17;;;19.30;99.90;;;;;;6149784;23;20200;-76
2021/06/24 05:03:00;;;;;;;4.35;2.33;;;19.40;99.90;;;;;;6162469;23;20200;-77
2021/06/24 05:05:28;;;;;;;4.25;1.98;;;19.50;99.90;;;;;;6157562;23;20211;-77
2021/06/24 05:07:57;;;;;;;2.50;1.95;;;19.70;99.90;;;;;;6150600;23;20637;-76
2021/06/24 05:10:24;;;;;;;3.25;2.47;;;19.80;99.90;;;;;;6165206;23;20200;-77
2021/06/24 05:12:51;;;;;;;4.63;2.10;;;19.80;99.90;;;;;;6149140;23;20200;-75
2021/06/24 05:15:19;;;;;;;2.88;2.10;;;19.70;99.90;;;;;;6149761;23;20176;-77
2021/06/24 05:17:46;;;;;;;4.22;2.30;;;19.80;99.90;;;;;;6149526;23;20207;-77
2021/06/24 05:20:14;;;;;;;2.70;2.15;;;19.90;99.90;;;;;;6149237;23;20196;-76
2021/06/24 05:22:41;;;;;;;3.72;2.38;;;20.10;99.90;;;;;;6149652;23;20217;-76
2021/06/24 05:25:11;;;;;;;3.60;2.25;;;20.20;99.90;;;;;;6153019;23;20179;-77
2021/06/24 05:27:38;;;;;;;6.75;2.50;;;20.40;99.90;;;;;;6150809;23;20207;-77
2021/06/24 05:30:06;;;;;;;3.13;2.35;;;20.50;99.90;;;;;;6152223;23;20168;-77
2021/06/24 05:32:33;;;;;;;3.38;1.90;;;20.50;99.90;;;;;;6149766;23;20210;-78
2021/06/24 05:35:00;;;;;;;2.42;1.98;;;20.20;99.90;;;;;;6150206;23;20184;-77
2021/06/24 05:37:28;;;;;;;4.53;2.80;;;20.10;99.90;;;;;;6150340;23;20200;-77
2021/06/24 05:39:55;;;;;;;3.53;2.65;;;20.10;99.90;;;;;;6151452;23;20176;-78
2021/06/24 05:42:23;;;;;;;2.95;2.42;;;20.10;99.90;;;;;;6150771;23;20208;-77
2021/06/24 05:44:50;;;;;;;4.78;2.30;;;20.00;99.90;;;;;;6151086;23;20180;-78
2021/06/24 05:47:17;;;;;;;3.58;2.75;;;19.90;99.90;;;;;;6149664;23;20208;-77
2021/06/24 05:49:44;;;;;;;3.50;2.72;;;19.90;99.90;;;;;;6169444;23;20183;-77
2021/06/24 05:52:12;;;;;;;4.43;2.78;;;19.90;99.90;;;;;;6150552;23;20208;-77
2021/06/24 05:54:39;;;;;;;4.10;2.83;;;20.00;99.90;;;;;;6150002;23;20180;-77
2021/06/24 05:57:07;;;;;;;5.72;2.83;;;20.00;99.90;;;;;;6149025;23;20557;-77
2021/06/24 05:59:35;;;;;;;2.90;2.60;;;20.10;99.90;;;;;;6154000;23;20259;-77
2021/06/24 06:02:02;;;;;;;4.45;2.65;;;20.10;99.90;;;;;;6162265;23;20208;-77
2021/06/24 06:04:29;;;;;;;3.83;2.67;;;20.10;99.90;;;;;;6149688;23;20768;-77
2021/06/24 06:06:56;;;;;;;5.10;2.90;;;20.20;99.90;;;;;;6149794;23;20211;-78
2021/06/24 06:09:23;;;;;;;4.55;2.78;;;20.20;99.90;;;;;;6151342;23;20172;-78
2021/06/24 06:11:50;;;;;;;3.20;2.88;;;20.20;99.90;;;;;;6150611;23;20211;-77
2021/06/24 06:14:17;;;;;;;3.67;2.95;;;20.30;99.90;;;;;;6151519;23;20172;-77
2021/06/24 06:16:46;;;;;;;4.40;2.78;;;20.40;99.90;;;;;;6148816;23;20204;-76
2021/06/24 06:19:13;;;;;;;3.15;2.85;;;20.40;99.90;;;;;;6149555;23;20659;-77
2021/06/24 06:21:41;;;;;;;3.35;2.65;;;20.40;99.90;;;;;;6148549;23;20596;-77
2021/06/24 06:24:08;;;;;;;3.38;2.72;;;20.50;99.90;;;;;;6150028;23;20172;-77
2021/06/24 06:26:35;;;;;;;2.83;2.47;;;20.60;99.90;;;;;;6147578;23;20215;-77
2021/06/24 06:29:05;;;;;;;4.57;2.30;;;20.70;99.90;;;;;;6150115;23;20172;-77
2021/06/24 06:31:35;;;;;;;2.72;2.30;;;20.90;99.90;;;;;;6148820;23;20215;-77
2021/06/24 06:34:04;;;;;;;2.97;2.67;;;21.00;99.90;;;;;;6153121;23;20183;-77
2021/06/24 06:36:31;;;;;;;3.78;2.95;;;21.20;99.90;;;;;;6171543;23;20204;-76
2021/06/24 06:38:58;;;;;;;8.45;2.90;;;21.40;99.90;;;;;;6149994;23;20188;-78
2021/06/24 06:41:25;;;;;;;4.35;3.00;;;21.50;99.90;;;;;;6146589;23;20208;-77
2021/06/24 06:43:53;;;;;;;17.38;3.13;;;21.60;99.90;;;;;;6146779;23;20564;-76
2021/06/24 06:46:20;;;;;;;3.50;2.47;;;21.80;99.90;;;;;;6147419;23;20204;-77
2021/06/24 06:48:48;;;;;;;4.60;3.25;;;21.90;99.90;;;;;;6141073;23;20176;-79
2021/06/24 06:51:18;;;;;;;5.93;2.92;;;21.90;99.90;;;;;;6153515;23;20203;-79
2021/06/24 06:53:45;;;;;;;4.05;2.85;;;22.10;99.90;;;;;;6144235;23;20172;-77
2021/06/24 06:56:12;;;;;;;3.53;2.50;;;22.20;99.90;;;;;;6140302;23;20211;-79
2021/06/24 06:58:39;;;;;;;3.53;2.75;;;22.20;99.90;;;;;;6146838;23;20655;-78
2021/06/24 07:01:06;;;;;;;5.22;3.15;;;22.30;99.90;;;;;;6143181;23;20208;-79
2021/06/24 07:03:33;;;;;;;3.75;2.70;;;22.50;99.90;;;;;;6144770;23;20183;-79
2021/06/24 07:06:01;;;;;;;5.60;2.67;;;22.40;99.90;;;;;;6141858;23;20204;-79
2021/06/24 07:08:29;;;;;;;4.15;2.88;;;22.40;99.90;;;;;;6145589;23;20176;-78
2021/06/24 07:10:56;;;;;;;3.00;2.70;;;22.50;99.90;;;;;;6142111;23;20187;-78
2021/06/24 07:13:23;;;;;;;3.30;2.55;;;22.70;99.90;;;;;;6145742;23;20176;-79
2021/06/24 07:15:51;;;;;;;2.75;2.45;;;22.80;99.90;;;;;;6144288;23;20176;-79
2021/06/24 07:18:18;;;;;;;8.35;3.00;;;22.90;99.90;;;;;;6144631;23;20200;-78
2021/06/24 07:20:45;;;;;;;4.07;2.95;;;23.10;99.90;;;;;;6146878;23;20199;-79
2021/06/24 07:23:12;;;;;;;4.13;3.08;;;23.10;99.90;;;;;;6151720;23;20200;-78
2021/06/24 07:25:40;;;;;;;5.97;3.47;;;23.00;99.90;;;;;;6142593;23;20876;-79
2021/06/24 07:28:08;;;;;;;8.43;3.17;;;23.00;99.90;;;;;;6142693;23;20654;-81
2021/06/24 07:30:36;;;;;;;3.85;3.08;;;23.20;99.90;;;;;;6142183;23;20239;-77
2021/06/24 07:33:03;;;;;;;3.53;3.10;;;23.20;99.90;;;;;;6143026;23;20215;-79
2021/06/24 07:35:30;;;;;;;3.25;2.90;;;23.20;99.90;;;;;;6148654;23;20171;-77
2021/06/24 07:37:57;;;;;;;5.53;3.30;;;23.30;99.90;;;;;;6148663;23;20684;-77
2021/06/24 07:40:24;;;;;;;4.20;3.05;;;23.30;99.90;;;;;;6145451;23;20176;-77
2021/06/24 07:42:53;;;;;;;3.35;2.65;;;23.40;99.90;;;;;;6162328;23;20215;-78
2021/06/24 07:45:20;;;;;;;5.68;2.78;;;23.50;99.90;;;;;;6145273;23;20178;-77
2021/06/24 07:47:47;;;;;;;6.22;3.60;;;23.70;99.90;;;;;;6144364;23;20208;-79
2021/06/24 07:50:14;;;;;;;3.95;3.00;;;23.60;99.90;;;;;;6143272;23;20180;-78
2021/06/24 07:52:42;;;;;;;5.38;3.33;;;23.70;99.90;;;;;;6144444;23;20204;-78
2021/06/24 07:55:10;;;;;;;6.57;3.00;;;23.70;99.90;;;;;;6145851;23;20176;-76
2021/06/24 07:57:37;;;;;;;7.57;3.33;;;23.70;99.90;;;;;;6144147;23;20199;-75
2021/06/24 08:00:09;;;;;;;5.70;3.13;;;23.70;99.90;;;;;;6145001;23;20176;-77
2021/06/24 08:02:36;;;;;;;4.93;2.92;;;23.90;99.90;;;;;;6145123;23;20231;-78
2021/06/24 08:05:04;;;;;;;3.95;2.70;;;23.90;99.90;;;;;;6145476;23;20271;-77
2021/06/24 08:07:31;;;;;;;6.25;2.60;;;23.90;99.90;;;;;;6160130;23;20232;-78
2021/06/24 08:10:02;;;;;;;5.97;3.58;;;23.90;99.90;;;;;;6151427;23;20176;-78
2021/06/24 08:12:30;;;;;;;3.25;2.67;;;23.90;99.90;;;;;;6143860;23;20207;-78
2021/06/24 08:14:57;;;;;;;5.30;2.83;;;24.10;99.90;;;;;;6144799;23;20176;-78
2021/06/24 08:17:25;;;;;;;3.20;2.50;;;24.20;99.90;;;;;;6145283;23;20204;-78
2021/06/24 08:19:52;;;;;;;3.58;2.70;;;24.30;99.90;;;;;;6144697;23;20180;-77
2021/06/24 08:22:19;;;;;;;3.58;2.72;;;24.40;99.90;;;;;;6144895;23;20307;-78
2021/06/24 08:24:47;;;;;;;5.57;2.83;;;24.50;99.90;;;;;;6145651;23;20177;-78
2021/06/24 08:27:14;;;;;;;5.82;2.45;;;24.50;99.90;;;;;;6144345;23;20200;-78
2021/06/24 08:29:41;;;;;;;4.43;2.28;;;24.60;99.90;;;;;;6145989;23;20176;-77
2021/06/24 08:32:08;;;;;;;5.43;2.85;;;24.50;99.90;;;;;;6160243;23;20283;-77
2021/06/24 08:34:38;;;;;;;3.30;2.33;;;24.70;99.90;;;;;;6145245;23;20176;-78
2021/06/24 08:37:05;;;;;;;4.90;2.85;;;24.80;99.90;;;;;;6144390;23;20275;-78
2021/06/24 08:39:32;;;;;;;3.45;2.60;;;24.50;99.90;;;;;;6143314;23;20178;-76
2021/06/24 08:41:59;;;;;;;5.70;3.28;;;24.20;99.90;;;;;;6143904;23;20212;-78
2021/06/24 08:44:26;;;;;;;3.00;2.72;;;24.40;99.90;;;;;;6148966;23;20172;-77
2021/06/24 08:46:57;;;;;;;3.17;2.25;;;24.40;99.90;;;;;;6144843;23;20204;-77
2021/06/24 08:49:27;;;;;;;2.95;2.28;;;24.40;99.90;;;;;;6145562;23;20157;-77
2021/06/24 08:51:58;;;;;;;3.47;2.70;;;24.70;99.90;;;;;;6148054;23;20216;-79
2021/06/24 08:54:25;;;;;;;4.75;2.78;;;24.50;99.90;;;;;;6170318;23;20161;-78
2021/06/24 08:56:53;;;;;;;2.70;2.50;;;24.60;99.90;;;;;;6148774;23;20210;-79
2021/06/24 08:59:20;;;;;;;4.88;2.50;;;24.90;99.90;;;;;;6150618;23;20187;-79
2021/06/24 09:01:50;;;;;;;3.63;2.67;;;25.20;99.90;;;;;;6150903;23;20219;-79
2021/06/24 09:04:18;;;;;;;3.97;2.50;;;25.20;99.90;;;;;;6147621;23;20183;-78
2021/06/24 09:06:45;;;;;;;2.83;2.20;;;25.20;99.90;;;;;;6145870;23;20203;-77
2021/06/24 09:09:25;;;;;;;6.43;3.10;;;25.70;99.90;;;;;;6145705;23;20180;-77
2021/06/24 09:12:01;;;;;;;4.60;2.78;;;25.90;99.90;;;;;;6144125;23;20625;-77
2021/06/24 09:14:39;;;;;;;3.40;2.65;;;26.00;99.90;;;;;;6144237;23;20160;-78
2021/06/24 09:17:07;;;;;;;3.92;2.60;;;25.90;99.90;;;;;;6145907;23;20208;-77
2021/06/24 09:19:34;;;;;;;6.15;2.80;;;25.70;99.90;;;;;;6144485;23;20172;-76
2021/06/24 09:22:02;;;;;;;5.28;2.63;;;25.80;99.90;;;;;;6153175;23;20218;-77
2021/06/24 09:24:33;;;;;;;3.50;2.65;;;25.90;99.90;;;;;;6153133;23;20183;-78
2021/06/24 09:27:03;;;;;;;6.88;3.50;;;25.90;99.90;;;;;;6146587;23;20211;-77
2021/06/24 09:29:30;;;;;;;4.45;2.85;;;26.00;99.90;;;;;;6145873;23;20180;-77
2021/06/24 09:31:59;;;;;;;5.22;2.97;;;26.10;99.90;;;;;;6144987;23;20557;-75
2021/06/24 09:34:27;;;;;;;3.08;2.63;;;26.30;99.90;;;;;;6145663;23;20184;-76
2021/06/24 09:36:59;;;;;;;6.15;3.22;;;26.60;99.90;;;;;;6142269;23;20227;-76
2021/06/24 09:39:29;;;;;;;7.70;3.00;;;26.80;99.90;;;;;;6159877;23;20227;-77
2021/06/24 09:42:01;;;;;;;4.00;2.72;;;26.70;99.90;;;;;;6156364;23;20231;-75
2021/06/24 09:44:29;;;;;;;4.50;3.15;;;26.50;99.90;;;;;;6149526;23;20637;-78
2021/06/24 09:46:56;;;;;;;5.13;2.95;;;26.50;99.90;;;;;;6149492;23;20383;-77
2021/06/24 09:49:32;;;;;;;3.42;2.30;;;26.60;99.90;;;;;;6145762;23;20195;-77
2021/06/24 09:52:00;;;;;;;3.88;2.70;;;26.60;99.90;;;;;;6146256;23;20270;-78
2021/06/24 09:54:36;;;;;;;6.07;2.95;;;26.80;99.90;;;;;;6144726;23;20179;-79
2021/06/24 09:57:06;;;;;;;4.72;2.10;;;27.00;99.90;;;;;;6145191;23;20207;-78
2021/06/24 09:59:35;;;;;;;2.78;2.45;;;27.00;99.90;;;;;;6145371;23;20809;-79
2021/06/24 10:02:11;;;;;;;3.15;2.20;;;27.10;99.90;;;;;;6145245;23;20200;-79
2021/06/24 10:04:41;;;;;;;4.38;2.47;;;27.00;99.90;;;;;;6145893;23;20156;-76
2021/06/24 10:07:11;;;;;;;4.18;2.55;;;27.30;99.90;;;;;;6143444;23;20551;-78
2021/06/24 10:09:39;;;;;;;5.32;2.50;;;27.30;99.90;;;;;;6144641;23;20167;-78
2021/06/24 10:12:10;;;;;;;4.68;2.70;;;27.50;99.90;;;;;;6149564;23;20264;-79
2021/06/24 10:14:39;;;;;;;2.50;2.30;;;27.50;99.90;;;;;;6155821;23;20547;-78
2021/06/24 10:17:08;;;;;;;4.88;2.72;;;27.60;99.90;;;;;;6144510;23;20208;-79
2021/06/24 10:19:36;;;;;;;7.78;2.63;;;27.70;99.90;;;;;;6144569;23;20182;-78
2021/06/24 10:22:11;;;;;;;4.55;2.45;;;27.70;99.90;;;;;;6143667;23;20216;-78
2021/06/24 10:24:42;;;;;;;4.55;2.70;;;27.80;99.90;;;;;;6151006;23;20507;-78
2021/06/24 10:27:12;;;;;;;5.85;2.78;;;27.80;99.90;;;;;;6158140;23;20283;-76
2021/06/24 10:29:48;;;;;;;3.92;2.63;;;27.90;99.90;;;;;;6146093;23;20204;-78
2021/06/24 10:32:31;;;;;;;4.30;2.33;;;27.90;99.90;;;;;;6146154;23;20196;-79
2021/06/24 10:35:01;;;;;;;2.63;2.20;;;27.90;99.90;;;;;;6146237;23;20157;-77
2021/06/24 10:37:30;;;;;;;3.17;2.35;;;28.20;99.90;;;;;;6145179;23;20231;-79
2021/06/24 10:39:59;;;;;;;11.77;3.28;;;28.20;99.90;;;;;;6147691;23;20194;-80
2021/06/24 10:42:32;;;;;;;3.63;2.72;;;28.30;99.90;;;;;;6146389;23;20204;-78
2021/06/24 10:45:01;;;;;;;8.60;3.55;;;28.10;99.90;;;;;;6144565;23;20164;-78
2021/06/24 10:47:36;;;;;;;8.18;2.75;;;28.20;99.90;;;;;;6144277;23;20204;-78
2021/06/24 10:50:38;;;;;;;7.68;2.92;;;28.50;99.90;;;;;;6144705;23;20164;-78
2021/06/24 10:53:42;;;;;;;7.05;2.78;;;28.60;99.90;;;;;;6135817;23;20232;-78
2021/06/24 10:56:48;;;;;;;5.60;2.90;;;28.70;99.90;;;;;;6145080;23;20175;-78
2021/06/24 10:59:33;;;;;;;5.35;2.53;;;28.90;99.90;;;;;;6140979;23;20227;-78
2021/06/24 11:02:22;;;;;;;7.53;2.60;;;29.10;99.90;;;;;;6143427;23;20204;-80
2021/06/24 11:04:50;;;;;;;7.53;2.83;;;29.10;99.90;;;;;;6145327;23;20540;-78
2021/06/24 11:07:42;;;;;;;10.85;2.75;;;29.30;99.90;;;;;;6145342;23;20178;-78
2021/06/24 11:10:31;;;;;;;5.85;2.65;;;29.50;99.90;;;;;;6119771;23;20283;-78
2021/06/24 11:13:04;;;;;;;7.40;2.70;;;29.60;99.90;;;;;;6161405;23;20188;-78
2021/06/24 11:16:00;;;;;;;6.18;3.08;;;29.60;99.90;;;;;;6147889;23;20207;-79
2021/06/24 11:18:56;;;;;;;7.55;2.80;;;29.60;99.90;;;;;;6146117;23;20800;-78
2021/06/24 11:21:58;;;;;;;7.70;2.92;;;29.70;99.90;;;;;;6143567;23;20188;-78
2021/06/24 11:27:02;;;;;;;8.02;2.58;;;29.80;99.90;;;;;;6199740;23;20590;-74
2021/06/24 11:32:29;;;;;;;6.00;2.70;;;30.20;99.90;;;;;;6202498;23;20246;-75
2021/06/24 11:35:02;;;;;;;7.13;2.45;;;30.10;99.90;;;;;;6203380;23;20206;-74
2021/06/24 11:37:31;;;;;;;9.70;2.50;;;30.30;99.90;;;;;;6201750;23;20191;-73
2021/06/24 11:40:00;;;;;;;5.05;2.38;;;30.20;99.90;;;;;;6202596;23;20206;-75
2021/06/24 11:42:32;;;;;;;8.07;2.58;;;30.30;99.90;;;;;;6201922;23;20721;-75
2021/06/24 11:44:59;;;;;;;7.28;2.60;;;30.30;99.90;;;;;;6202823;23;20261;-76
2021/06/24 11:47:32;;;;;;;4.75;2.20;;;30.30;99.90;;;;;;6204078;23;20225;-74
2021/06/24 12:04:11;;;;;;;7.05;2.45;;;30.50;99.90;;;;;;6195261;23;20190;-73
2021/06/24 12:06:46;;;;;;;7.72;2.40;;;30.50;99.90;;;;;;6198935;23;20199;-76
2021/06/24 12:09:14;;;;;;;6.10;2.40;;;30.60;99.90;;;;;;6195778;23;20533;-75
2021/06/24 12:11:41;;;;;;;7.18;2.22;;;31.00;99.90;;;;;;6197485;23;20237;-74
2021/06/24 12:14:16;;;;;;;7.45;2.28;;;30.90;99.90;;;;;;6198434;23;20179;-76
2021/06/24 12:17:11;;;;;;;4.28;2.13;;;30.80;99.90;;;;;;6198600;23;20225;-74
2021/06/24 12:19:51;;;;;;;4.22;2.00;;;30.90;99.90;;;;;;6202536;23;20206;-73
2021/06/24 12:22:20;;;;;;;5.20;2.33;;;31.00;99.90;;;;;;6204055;23;21062;-75
2021/06/24 12:24:48;;;;;;;4.22;2.03;;;30.70;99.90;;;;;;6200623;23;20210;-75
2021/06/24 12:27:22;;;;;;;6.03;2.28;;;30.80;99.90;;;;;;6198514;23;20866;-77
2021/06/24 12:29:53;;;;;;;6.28;2.35;;;30.80;99.90;;;;;;6202125;23;20198;-76
2021/06/24 12:32:22;;;;;;;5.50;2.22;;;30.90;99.90;;;;;;6202872;23;20163;-76
2021/06/24 12:34:51;;;;;;;5.20;2.38;;;31.00;99.90;;;;;;6204239;23;20272;-77
2021/06/24 12:37:42;;;;;;;5.68;2.17;;;31.00;99.90;;;;;;6201423;23;20175;-76
2021/06/24 12:40:13;;;;;;;4.47;2.38;;;31.00;99.90;;;;;;6201551;23;20200;-75
2021/06/24 12:42:48;;;;;;;3.85;1.92;;;30.90;99.90;;;;;;6202810;23;20194;-75
2021/06/24 12:45:16;;;;;;;4.95;1.90;;;30.90;99.90;;;;;;6202850;23;20664;-77
2021/06/24 12:47:46;;;;;;;4.70;2.13;;;30.90;99.90;;;;;;6203487;23;20184;-76
2021/06/24 12:50:21;;;;;;;4.35;1.80;;;30.90;99.90;;;;;;6201894;23;20203;-77
2021/06/24 12:52:51;;;;;;;5.45;2.22;;;30.90;99.90;;;;;;6203385;23;20158;-76
2021/06/24 12:55:39;;;;;;;5.03;2.58;;;31.00;99.90;;;;;;6203571;23;20225;-75
2021/06/24 12:58:07;;;;;;;4.10;1.90;;;30.90;99.30;;;;;;6202355;23;20170;-74
2021/06/24 13:00:35;;;;;;;3.10;1.70;;;30.90;99.70;;;;;;6200864;23;20203;-73
2021/06/24 13:03:03;;;;;;;5.43;2.10;;;30.80;99.90;;;;;;6200856;23;20606;-73
2021/06/24 13:05:32;;;;;;;5.40;1.92;;;30.70;98.10;;;;;;6202114;23;20210;-76
2021/06/24 13:08:02;;;;;;;4.50;1.98;;;30.70;98.50;;;;;;6199339;23;20241;-75
2021/06/24 13:10:29;;;;;;;3.53;1.80;;;30.70;98.30;;;;;;6197992;23;20311;-76
2021/06/24 13:12:56;;;;;;;3.38;1.75;;;30.70;97.40;;;;;;6198073;23;20183;-74
2021/06/24 13:15:34;;;;;;;5.20;2.00;;;30.70;97.50;;;;;;6197448;23;20207;-75
2021/06/24 13:18:02;;;;;;;4.95;1.67;;;30.90;95.80;;;;;;6203835;23;20493;-77